< < Back
Terminal Aerodrome Forecast


Current Version              Previous Versions:   1  2  3  4  5  6  7  8  9  

Terminal Aerodrome Forecast

746
FTUS44 KHUN 271140
TAFHSV
TAF
KHSV 271140Z 2712/2812 VRB03KT P6SM SCT035 SCT250
      TEMPO 2712/2714 6SM BR
     FM271600 04005KT P6SM FEW050=



Latest METAR

857
SAUS80 KWBC 280700 RRA
MTRHSV
METAR KHSV 280653Z AUTO 00000KT 10SM CLR 22/19 A3003 RMK AO2 SLP159
T02170194


USA.gov is the U.S. government's official web portal to all federal, state and local government web resources and services.